sensor_id;sensor_type;location;lat;lon;timestamp;temperature;humidity
19580;DHT22;9936;51.040;13.918;2023-02-28T00:03:07;0.10;99.90
19580;DHT22;9936;51.040;13.918;2023-02-28T00:06:53;0.10;99.90
19580;DHT22;9936;51.040;13.918;2023-02-28T00:10:39;0.20;99.90
19580;DHT22;9936;51.040;13.918;2023-02-28T00:14:24;0.10;99.90
19580;DHT22;9936;51.040;13.918;2023-02-28T00:18:10;0.10;99.90
19580;DHT22;9936;51.040;13.918;2023-02-28T00:21:57;0.00;99.90
19580;DHT22;9936;51.040;13.918;2023-02-28T00:25:42;0.10;99.90
19580;DHT22;9936;51.040;13.918;2023-02-28T00:29:28;0.10;99.90
19580;DHT22;9936;51.040;13.918;2023-02-28T00:33:13;0.00;99.90
19580;DHT22;9936;51.040;13.918;2023-02-28T00:36:59;0.00;99.90
19580;DHT22;9936;51.040;13.918;2023-02-28T00:40:45;0.00;99.90
19580;DHT22;9936;51.040;13.918;2023-02-28T00:44:31;0.00;99.90
19580;DHT22;9936;51.040;13.918;2023-02-28T00:48:16;0.00;99.90
19580;DHT22;9936;51.040;13.918;2023-02-28T00:52:02;0.00;99.90
19580;DHT22;9936;51.040;13.918;2023-02-28T00:55:49;0.00;99.90
19580;DHT22;9936;51.040;13.918;2023-02-28T00:59:35;0.00;99.90
19580;DHT22;9936;51.040;13.918;2023-02-28T01:03:22;-0.10;99.90
19580;DHT22;9936;51.040;13.918;2023-02-28T01:07:07;0.00;99.90
19580;DHT22;9936;51.040;13.918;2023-02-28T01:10:53;-0.10;99.90
19580;DHT22;9936;51.040;13.918;2023-02-28T01:14:39;-0.10;99.90
19580;DHT22;9936;51.040;13.918;2023-02-28T01:18:25;-0.10;99.90
19580;DHT22;9936;51.040;13.918;2023-02-28T01:22:11;0.00;99.90
19580;DHT22;9936;51.040;13.918;2023-02-28T01:25:56;-0.10;99.90
19580;DHT22;9936;51.040;13.918;2023-02-28T01:29:42;-0.10;99.90
19580;DHT22;9936;51.040;13.918;2023-02-28T01:33:28;-0.10;99.90
19580;DHT22;9936;51.040;13.918;2023-02-28T01:37:14;-0.20;99.90
19580;DHT22;9936;51.040;13.918;2023-02-28T01:41:01;-0.20;99.90
19580;DHT22;9936;51.040;13.918;2023-02-28T01:49:00;-0.20;99.90
19580;DHT22;9936;51.040;13.918;2023-02-28T01:52:48;-0.30;99.90
19580;DHT22;9936;51.040;13.918;2023-02-28T01:56:35;-0.20;99.90
19580;DHT22;9936;51.040;13.918;2023-02-28T02:00:24;-0.30;99.90
19580;DHT22;9936;51.040;13.918;2023-02-28T02:04:12;-0.30;99.90
19580;DHT22;9936;51.040;13.918;2023-02-28T02:08:03;-0.30;99.90
19580;DHT22;9936;51.040;13.918;2023-02-28T02:11:49;-0.30;99.90
19580;DHT22;9936;51.040;13.918;2023-02-28T02:23:39;-0.40;99.90
19580;DHT22;9936;51.040;13.918;2023-02-28T02:36:02;-0.40;99.90
19580;DHT22;9936;51.040;13.918;2023-02-28T02:40:23;-0.40;99.90
19580;DHT22;9936;51.040;13.918;2023-02-28T02:48:07;-0.40;99.90
19580;DHT22;9936;51.040;13.918;2023-02-28T02:51:55;-0.50;99.90
19580;DHT22;9936;51.040;13.918;2023-02-28T02:55:44;-0.40;99.90
19580;DHT22;9936;51.040;13.918;2023-02-28T02:59:32;-0.50;99.90
19580;DHT22;9936;51.040;13.918;2023-02-28T03:03:27;-0.50;99.90
19580;DHT22;9936;51.040;13.918;2023-02-28T03:07:16;-0.60;99.90
19580;DHT22;9936;51.040;13.918;2023-02-28T03:11:07;-0.60;99.90
19580;DHT22;9936;51.040;13.918;2023-02-28T03:15:27;-0.60;99.90
19580;DHT22;9936;51.040;13.918;2023-02-28T03:23:23;-0.60;99.90
19580;DHT22;9936;51.040;13.918;2023-02-28T03:31:54;-0.70;99.90
19580;DHT22;9936;51.040;13.918;2023-02-28T03:35:36;-0.70;99.90
19580;DHT22;9936;51.040;13.918;2023-02-28T03:39:40;-0.70;99.90
19580;DHT22;9936;51.040;13.918;2023-02-28T03:43:34;-0.70;99.90
19580;DHT22;9936;51.040;13.918;2023-02-28T03:47:39;-0.60;99.90
19580;DHT22;9936;51.040;13.918;2023-02-28T03:51:29;-0.80;99.90
19580;DHT22;9936;51.040;13.918;2023-02-28T03:55:16;-0.80;99.90
19580;DHT22;9936;51.040;13.918;2023-02-28T03:59:36;-0.80;99.90
19580;DHT22;9936;51.040;13.918;2023-02-28T04:03:25;-0.90;99.90
19580;DHT22;9936;51.040;13.918;2023-02-28T04:07:11;-0.90;99.90
19580;DHT22;9936;51.040;13.918;2023-02-28T04:11:22;-0.90;99.90
19580;DHT22;9936;51.040;13.918;2023-02-28T04:15:08;-0.90;99.90
19580;DHT22;9936;51.040;13.918;2023-02-28T04:18:54;-1.00;99.90
19580;DHT22;9936;51.040;13.918;2023-02-28T04:22:48;-1.00;99.90
19580;DHT22;9936;51.040;13.918;2023-02-28T04:26:36;-1.00;99.90
19580;DHT22;9936;51.040;13.918;2023-02-28T04:30:21;-1.10;99.90
19580;DHT22;9936;51.040;13.918;2023-02-28T04:34:08;-1.10;99.90
19580;DHT22;9936;51.040;13.918;2023-02-28T04:37:54;-1.10;99.90
19580;DHT22;9936;51.040;13.918;2023-02-28T04:41:39;-1.10;99.90
19580;DHT22;9936;51.040;13.918;2023-02-28T04:45:25;-1.20;99.90
19580;DHT22;9936;51.040;13.918;2023-02-28T04:49:11;-1.20;99.90
19580;DHT22;9936;51.040;13.918;2023-02-28T04:52:57;-1.10;99.90
19580;DHT22;9936;51.040;13.918;2023-02-28T04:56:43;-1.20;99.90
19580;DHT22;9936;51.040;13.918;2023-02-28T05:00:32;-1.30;99.90
19580;DHT22;9936;51.040;13.918;2023-02-28T05:04:17;-1.30;99.90
19580;DHT22;9936;51.040;13.918;2023-02-28T05:08:03;-1.30;99.90
19580;DHT22;9936;51.040;13.918;2023-02-28T05:11:50;-1.30;99.90
19580;DHT22;9936;51.040;13.918;2023-02-28T05:15:41;-1.30;99.90
19580;DHT22;9936;51.040;13.918;2023-02-28T05:19:26;-1.40;99.90
19580;DHT22;9936;51.040;13.918;2023-02-28T05:23:13;-1.50;99.90
19580;DHT22;9936;51.040;13.918;2023-02-28T05:26:59;-1.40;99.90
19580;DHT22;9936;51.040;13.918;2023-02-28T05:30:44;-1.40;99.90
19580;DHT22;9936;51.040;13.918;2023-02-28T05:34:30;-1.40;99.90
19580;DHT22;9936;51.040;13.918;2023-02-28T05:38:15;-1.50;99.90
19580;DHT22;9936;51.040;13.918;2023-02-28T05:42:02;-1.50;99.90
19580;DHT22;9936;51.040;13.918;2023-02-28T05:45:48;-1.50;99.90
19580;DHT22;9936;51.040;13.918;2023-02-28T05:49:34;-1.60;99.90
19580;DHT22;9936;51.040;13.918;2023-02-28T05:53:20;-1.60;99.90
19580;DHT22;9936;51.040;13.918;2023-02-28T05:57:06;-1.60;99.90
19580;DHT22;9936;51.040;13.918;2023-02-28T06:00:58;-1.60;99.90
19580;DHT22;9936;51.040;13.918;2023-02-28T06:04:44;-1.60;99.90
19580;DHT22;9936;51.040;13.918;2023-02-28T06:08:30;-1.70;99.90
19580;DHT22;9936;51.040;13.918;2023-02-28T06:12:16;-1.70;99.90
19580;DHT22;9936;51.040;13.918;2023-02-28T06:16:01;-1.70;99.90
19580;DHT22;9936;51.040;13.918;2023-02-28T06:19:47;-1.70;99.90
19580;DHT22;9936;51.040;13.918;2023-02-28T06:23:33;-1.70;99.90
19580;DHT22;9936;51.040;13.918;2023-02-28T06:27:21;-1.70;99.90
19580;DHT22;9936;51.040;13.918;2023-02-28T06:31:12;-1.70;99.90
19580;DHT22;9936;51.040;13.918;2023-02-28T06:34:58;-1.80;99.90
19580;DHT22;9936;51.040;13.918;2023-02-28T06:38:44;-1.80;99.90
19580;DHT22;9936;51.040;13.918;2023-02-28T06:42:30;-1.70;99.90
19580;DHT22;9936;51.040;13.918;2023-02-28T06:46:16;-1.70;99.90
19580;DHT22;9936;51.040;13.918;2023-02-28T06:50:02;-1.70;99.90
19580;DHT22;9936;51.040;13.918;2023-02-28T06:53:48;-1.60;99.90
19580;DHT22;9936;51.040;13.918;2023-02-28T06:57:34;-1.60;99.90
19580;DHT22;9936;51.040;13.918;2023-02-28T07:01:20;-1.50;99.90
19580;DHT22;9936;51.040;13.918;2023-02-28T07:05:08;-1.50;99.90
19580;DHT22;9936;51.040;13.918;2023-02-28T07:08:54;-1.40;99.90
19580;DHT22;9936;51.040;13.918;2023-02-28T07:12:40;-1.40;99.90
19580;DHT22;9936;51.040;13.918;2023-02-28T07:16:26;-1.20;99.90
19580;DHT22;9936;51.040;13.918;2023-02-28T07:20:12;-1.20;99.90
19580;DHT22;9936;51.040;13.918;2023-02-28T07:23:58;-1.10;99.90
19580;DHT22;9936;51.040;13.918;2023-02-28T07:27:43;-1.10;99.90
19580;DHT22;9936;51.040;13.918;2023-02-28T07:31:29;-1.00;99.90
19580;DHT22;9936;51.040;13.918;2023-02-28T07:35:14;-0.90;99.90
19580;DHT22;9936;51.040;13.918;2023-02-28T07:39:00;-1.00;99.90
19580;DHT22;9936;51.040;13.918;2023-02-28T07:42:46;-1.00;99.90
19580;DHT22;9936;51.040;13.918;2023-02-28T07:46:32;-0.90;99.90
19580;DHT22;9936;51.040;13.918;2023-02-28T07:50:21;-0.90;99.90
19580;DHT22;9936;51.040;13.918;2023-02-28T07:54:07;-0.90;99.90
19580;DHT22;9936;51.040;13.918;2023-02-28T07:57:57;-0.90;99.90
19580;DHT22;9936;51.040;13.918;2023-02-28T08:01:43;-0.70;99.90
19580;DHT22;9936;51.040;13.918;2023-02-28T08:05:29;-0.80;99.90
19580;DHT22;9936;51.040;13.918;2023-02-28T08:09:16;-0.90;99.90
19580;DHT22;9936;51.040;13.918;2023-02-28T08:13:01;-0.90;99.90
19580;DHT22;9936;51.040;13.918;2023-02-28T08:16:47;-0.90;99.90
19580;DHT22;9936;51.040;13.918;2023-02-28T08:20:33;-0.90;99.90
19580;DHT22;9936;51.040;13.918;2023-02-28T08:24:18;-0.90;99.90
19580;DHT22;9936;51.040;13.918;2023-02-28T08:28:04;-0.90;99.90
19580;DHT22;9936;51.040;13.918;2023-02-28T08:31:59;-0.90;99.90
19580;DHT22;9936;51.040;13.918;2023-02-28T08:35:44;-0.90;99.90
19580;DHT22;9936;51.040;13.918;2023-02-28T08:39:30;-0.80;99.90
19580;DHT22;9936;51.040;13.918;2023-02-28T08:43:16;-0.80;99.90
19580;DHT22;9936;51.040;13.918;2023-02-28T08:47:01;-0.70;99.90
19580;DHT22;9936;51.040;13.918;2023-02-28T08:51:07;-0.70;99.90
19580;DHT22;9936;51.040;13.918;2023-02-28T08:54:54;-0.60;99.90
19580;DHT22;9936;51.040;13.918;2023-02-28T08:58:40;-0.50;99.90
19580;DHT22;9936;51.040;13.918;2023-02-28T09:02:26;-0.50;99.90
19580;DHT22;9936;51.040;13.918;2023-02-28T09:06:13;-0.50;99.90
19580;DHT22;9936;51.040;13.918;2023-02-28T09:09:59;-0.50;99.90
19580;DHT22;9936;51.040;13.918;2023-02-28T09:13:45;-0.40;99.90
19580;DHT22;9936;51.040;13.918;2023-02-28T09:17:31;-0.30;99.90
19580;DHT22;9936;51.040;13.918;2023-02-28T09:21:18;-0.30;99.90
19580;DHT22;9936;51.040;13.918;2023-02-28T09:25:04;-0.30;99.90
19580;DHT22;9936;51.040;13.918;2023-02-28T09:28:50;-0.20;99.90
19580;DHT22;9936;51.040;13.918;2023-02-28T09:32:36;-0.10;99.90
19580;DHT22;9936;51.040;13.918;2023-02-28T09:36:23;-0.20;99.90
19580;DHT22;9936;51.040;13.918;2023-02-28T09:40:10;-0.10;99.90
19580;DHT22;9936;51.040;13.918;2023-02-28T09:44:03;0.00;99.90
19580;DHT22;9936;51.040;13.918;2023-02-28T09:47:50;0.10;99.90
19580;DHT22;9936;51.040;13.918;2023-02-28T09:55:39;0.30;99.90
19580;DHT22;9936;51.040;13.918;2023-02-28T10:03:43;0.50;99.90
19580;DHT22;9936;51.040;13.918;2023-02-28T10:07:54;0.50;99.90
19580;DHT22;9936;51.040;13.918;2023-02-28T10:11:45;0.40;99.90
19580;DHT22;9936;51.040;13.918;2023-02-28T10:15:34;0.30;99.90
19580;DHT22;9936;51.040;13.918;2023-02-28T10:23:46;0.30;99.90
19580;DHT22;9936;51.040;13.918;2023-02-28T10:27:33;0.30;99.90
19580;DHT22;9936;51.040;13.918;2023-02-28T10:31:19;0.40;99.90
19580;DHT22;9936;51.040;13.918;2023-02-28T10:35:23;0.60;99.90
19580;DHT22;9936;51.040;13.918;2023-02-28T10:39:44;0.60;99.90
19580;DHT22;9936;51.040;13.918;2023-02-28T10:43:31;0.70;99.90
19580;DHT22;9936;51.040;13.918;2023-02-28T10:47:17;0.80;99.90
19580;DHT22;9936;51.040;13.918;2023-02-28T10:51:07;0.80;99.90
19580;DHT22;9936;51.040;13.918;2023-02-28T10:55:43;0.80;99.90
19580;DHT22;9936;51.040;13.918;2023-02-28T10:59:27;0.80;99.90
19580;DHT22;9936;51.040;13.918;2023-02-28T11:03:31;0.80;99.90
19580;DHT22;9936;51.040;13.918;2023-02-28T11:07:22;0.80;99.90
19580;DHT22;9936;51.040;13.918;2023-02-28T11:11:08;0.80;99.90
19580;DHT22;9936;51.040;13.918;2023-02-28T11:19:25;0.90;99.90
19580;DHT22;9936;51.040;13.918;2023-02-28T11:23:13;1.00;99.90
19580;DHT22;9936;51.040;13.918;2023-02-28T11:26:59;1.10;99.90
19580;DHT22;9936;51.040;13.918;2023-02-28T11:30:45;1.10;99.90
19580;DHT22;9936;51.040;13.918;2023-02-28T11:34:32;1.10;99.90
19580;DHT22;9936;51.040;13.918;2023-02-28T11:38:18;1.20;99.90
19580;DHT22;9936;51.040;13.918;2023-02-28T11:46:46;1.30;99.90
19580;DHT22;9936;51.040;13.918;2023-02-28T11:54:58;1.30;99.90
19580;DHT22;9936;51.040;13.918;2023-02-28T12:03:22;1.40;99.90
19580;DHT22;9936;51.040;13.918;2023-02-28T12:07:20;1.50;99.90
19580;DHT22;9936;51.040;13.918;2023-02-28T12:27:39;1.80;99.90
19580;DHT22;9936;51.040;13.918;2023-02-28T12:31:36;1.70;99.90
19580;DHT22;9936;51.040;13.918;2023-02-28T12:39:41;1.90;99.90
19580;DHT22;9936;51.040;13.918;2023-02-28T12:43:40;1.80;99.90
19580;DHT22;9936;51.040;13.918;2023-02-28T12:47:28;1.90;99.90
19580;DHT22;9936;51.040;13.918;2023-02-28T12:51:15;1.90;99.90
19580;DHT22;9936;51.040;13.918;2023-02-28T12:55:31;1.90;99.90
19580;DHT22;9936;51.040;13.918;2023-02-28T12:59:29;2.00;99.90
19580;DHT22;9936;51.040;13.918;2023-02-28T13:03:33;2.00;99.90
19580;DHT22;9936;51.040;13.918;2023-02-28T13:11:50;2.10;99.90
19580;DHT22;9936;51.040;13.918;2023-02-28T13:15:37;2.10;99.90
19580;DHT22;9936;51.040;13.918;2023-02-28T13:19:31;2.10;99.90
19580;DHT22;9936;51.040;13.918;2023-02-28T13:23:57;2.20;99.90
19580;DHT22;9936;51.040;13.918;2023-02-28T13:27:43;2.20;99.90
19580;DHT22;9936;51.040;13.918;2023-02-28T13:31:31;2.30;99.90
19580;DHT22;9936;51.040;13.918;2023-02-28T13:35:35;2.30;99.90
19580;DHT22;9936;51.040;13.918;2023-02-28T13:39:48;2.30;99.90
19580;DHT22;9936;51.040;13.918;2023-02-28T13:48:26;2.30;99.90
19580;DHT22;9936;51.040;13.918;2023-02-28T13:52:20;2.30;99.90
19580;DHT22;9936;51.040;13.918;2023-02-28T13:56:23;2.30;99.90
19580;DHT22;9936;51.040;13.918;2023-02-28T14:04:45;2.30;99.90
19580;DHT22;9936;51.040;13.918;2023-02-28T14:08:33;2.30;99.90
19580;DHT22;9936;51.040;13.918;2023-02-28T14:16:47;2.40;99.90
19580;DHT22;9936;51.040;13.918;2023-02-28T14:37:38;2.60;99.90
19580;DHT22;9936;51.040;13.918;2023-02-28T14:41:36;2.50;99.90
19580;DHT22;9936;51.040;13.918;2023-02-28T14:45:24;2.50;99.90
19580;DHT22;9936;51.040;13.918;2023-02-28T14:49:26;2.60;99.90
19580;DHT22;9936;51.040;13.918;2023-02-28T14:53:18;2.50;99.90
19580;DHT22;9936;51.040;13.918;2023-02-28T14:57:19;2.50;99.90
19580;DHT22;9936;51.040;13.918;2023-02-28T15:01:05;2.50;99.90
19580;DHT22;9936;51.040;13.918;2023-02-28T15:04:58;2.40;99.90
19580;DHT22;9936;51.040;13.918;2023-02-28T15:08:44;2.40;99.90
19580;DHT22;9936;51.040;13.918;2023-02-28T15:12:54;2.30;99.90
19580;DHT22;9936;51.040;13.918;2023-02-28T15:16:43;2.30;99.90
19580;DHT22;9936;51.040;13.918;2023-02-28T15:20:31;2.30;99.90
19580;DHT22;9936;51.040;13.918;2023-02-28T15:24:35;2.40;99.90
19580;DHT22;9936;51.040;13.918;2023-02-28T15:28:23;2.40;99.90
19580;DHT22;9936;51.040;13.918;2023-02-28T15:36:17;2.30;99.90
19580;DHT22;9936;51.040;13.918;2023-02-28T15:48:17;2.30;99.90
19580;DHT22;9936;51.040;13.918;2023-02-28T15:52:04;2.20;99.90
19580;DHT22;9936;51.040;13.918;2023-02-28T15:56:04;2.20;99.90
19580;DHT22;9936;51.040;13.918;2023-02-28T15:59:56;2.30;99.90
19580;DHT22;9936;51.040;13.918;2023-02-28T16:03:48;2.20;99.90
19580;DHT22;9936;51.040;13.918;2023-02-28T16:07:42;2.20;99.90
19580;DHT22;9936;51.040;13.918;2023-02-28T16:11:28;2.20;99.90
19580;DHT22;9936;51.040;13.918;2023-02-28T16:15:24;2.10;99.90
19580;DHT22;9936;51.040;13.918;2023-02-28T16:19:11;2.20;99.90
19580;DHT22;9936;51.040;13.918;2023-02-28T16:22:57;2.10;99.90
19580;DHT22;9936;51.040;13.918;2023-02-28T16:26:47;1.90;99.90
19580;DHT22;9936;51.040;13.918;2023-02-28T16:30:34;1.80;99.90
19580;DHT22;9936;51.040;13.918;2023-02-28T16:34:19;1.80;99.90
19580;DHT22;9936;51.040;13.918;2023-02-28T16:38:05;1.80;99.90
19580;DHT22;9936;51.040;13.918;2023-02-28T16:41:51;1.70;99.90
19580;DHT22;9936;51.040;13.918;2023-02-28T16:45:37;1.60;99.90
19580;DHT22;9936;51.040;13.918;2023-02-28T16:49:23;1.60;99.90
19580;DHT22;9936;51.040;13.918;2023-02-28T16:53:08;1.50;99.90
19580;DHT22;9936;51.040;13.918;2023-02-28T16:56:54;1.60;99.90
19580;DHT22;9936;51.040;13.918;2023-02-28T17:00:40;1.40;99.90
19580;DHT22;9936;51.040;13.918;2023-02-28T17:04:27;1.30;99.90
19580;DHT22;9936;51.040;13.918;2023-02-28T17:08:12;1.20;99.90
19580;DHT22;9936;51.040;13.918;2023-02-28T17:11:58;1.20;99.90
19580;DHT22;9936;51.040;13.918;2023-02-28T17:15:45;1.20;99.90
19580;DHT22;9936;51.040;13.918;2023-02-28T17:19:33;1.20;99.90
19580;DHT22;9936;51.040;13.918;2023-02-28T17:23:19;1.10;99.90
19580;DHT22;9936;51.040;13.918;2023-02-28T17:27:12;1.20;99.90
19580;DHT22;9936;51.040;13.918;2023-02-28T17:30:58;1.10;99.90
19580;DHT22;9936;51.040;13.918;2023-02-28T17:34:44;1.20;99.90
19580;DHT22;9936;51.040;13.918;2023-02-28T17:38:31;1.10;99.90
19580;DHT22;9936;51.040;13.918;2023-02-28T17:42:16;1.10;99.90
19580;DHT22;9936;51.040;13.918;2023-02-28T17:46:02;0.90;99.90
19580;DHT22;9936;51.040;13.918;2023-02-28T17:49:50;0.90;99.90
19580;DHT22;9936;51.040;13.918;2023-02-28T17:53:35;0.90;99.90
19580;DHT22;9936;51.040;13.918;2023-02-28T17:57:21;0.80;99.90
19580;DHT22;9936;51.040;13.918;2023-02-28T18:01:08;0.80;99.90
19580;DHT22;9936;51.040;13.918;2023-02-28T18:04:55;0.80;99.90
19580;DHT22;9936;51.040;13.918;2023-02-28T18:08:43;0.70;99.90
19580;DHT22;9936;51.040;13.918;2023-02-28T18:12:30;0.70;99.90
19580;DHT22;9936;51.040;13.918;2023-02-28T18:16:18;0.70;99.90
19580;DHT22;9936;51.040;13.918;2023-02-28T18:20:04;0.60;99.90
19580;DHT22;9936;51.040;13.918;2023-02-28T18:23:52;0.60;99.90
19580;DHT22;9936;51.040;13.918;2023-02-28T18:27:38;0.50;99.90
19580;DHT22;9936;51.040;13.918;2023-02-28T18:31:23;0.50;99.90
19580;DHT22;9936;51.040;13.918;2023-02-28T18:35:09;0.60;99.90
19580;DHT22;9936;51.040;13.918;2023-02-28T18:38:55;0.50;99.90
19580;DHT22;9936;51.040;13.918;2023-02-28T18:42:40;0.50;99.90
19580;DHT22;9936;51.040;13.918;2023-02-28T18:46:26;0.40;99.90
19580;DHT22;9936;51.040;13.918;2023-02-28T18:50:13;0.40;99.90
19580;DHT22;9936;51.040;13.918;2023-02-28T18:53:58;0.40;99.90
19580;DHT22;9936;51.040;13.918;2023-02-28T18:57:45;0.40;99.90
19580;DHT22;9936;51.040;13.918;2023-02-28T19:01:31;0.40;99.90
19580;DHT22;9936;51.040;13.918;2023-02-28T19:05:18;0.30;99.90
19580;DHT22;9936;51.040;13.918;2023-02-28T19:09:05;0.30;99.90
19580;DHT22;9936;51.040;13.918;2023-02-28T19:12:50;0.30;99.90
19580;DHT22;9936;51.040;13.918;2023-02-28T19:16:36;0.20;99.90
19580;DHT22;9936;51.040;13.918;2023-02-28T19:20:22;0.20;99.90
19580;DHT22;9936;51.040;13.918;2023-02-28T19:24:07;0.30;99.90
19580;DHT22;9936;51.040;13.918;2023-02-28T19:27:54;0.20;99.90
19580;DHT22;9936;51.040;13.918;2023-02-28T19:31:40;0.10;99.90
19580;DHT22;9936;51.040;13.918;2023-02-28T19:35:26;0.10;99.90
19580;DHT22;9936;51.040;13.918;2023-02-28T19:39:12;0.10;99.90
19580;DHT22;9936;51.040;13.918;2023-02-28T19:42:57;0.10;99.90
19580;DHT22;9936;51.040;13.918;2023-02-28T19:46:46;0.10;99.90
19580;DHT22;9936;51.040;13.918;2023-02-28T19:50:31;0.00;99.90
19580;DHT22;9936;51.040;13.918;2023-02-28T19:54:17;0.00;99.90
19580;DHT22;9936;51.040;13.918;2023-02-28T19:58:03;0.00;99.90
19580;DHT22;9936;51.040;13.918;2023-02-28T20:01:48;0.00;99.90
19580;DHT22;9936;51.040;13.918;2023-02-28T20:05:34;0.00;99.90
19580;DHT22;9936;51.040;13.918;2023-02-28T20:09:29;-0.10;99.90
19580;DHT22;9936;51.040;13.918;2023-02-28T20:13:34;0.00;99.90
19580;DHT22;9936;51.040;13.918;2023-02-28T20:17:21;-0.10;99.90
19580;DHT22;9936;51.040;13.918;2023-02-28T20:21:08;-0.10;99.90
19580;DHT22;9936;51.040;13.918;2023-02-28T20:24:54;-0.10;99.90
19580;DHT22;9936;51.040;13.918;2023-02-28T20:28:42;-0.10;99.90
19580;DHT22;9936;51.040;13.918;2023-02-28T20:32:42;-0.20;99.90
19580;DHT22;9936;51.040;13.918;2023-02-28T20:36:28;-0.20;99.90
19580;DHT22;9936;51.040;13.918;2023-02-28T20:40:43;-0.20;99.90
19580;DHT22;9936;51.040;13.918;2023-02-28T20:44:29;-0.20;99.90
19580;DHT22;9936;51.040;13.918;2023-02-28T20:48:14;-0.10;99.90
19580;DHT22;9936;51.040;13.918;2023-02-28T20:52:00;-0.30;99.90
19580;DHT22;9936;51.040;13.918;2023-02-28T20:56:01;-0.30;99.90
19580;DHT22;9936;51.040;13.918;2023-02-28T20:59:47;-0.30;99.90
19580;DHT22;9936;51.040;13.918;2023-02-28T21:03:32;-0.30;99.90
19580;DHT22;9936;51.040;13.918;2023-02-28T21:07:19;-0.40;99.90
19580;DHT22;9936;51.040;13.918;2023-02-28T21:11:31;-0.40;99.90
19580;DHT22;9936;51.040;13.918;2023-02-28T21:15:17;-0.40;99.90
19580;DHT22;9936;51.040;13.918;2023-02-28T21:19:06;-0.50;99.90
19580;DHT22;9936;51.040;13.918;2023-02-28T21:22:53;-0.50;99.90
19580;DHT22;9936;51.040;13.918;2023-02-28T21:26:40;-0.50;99.90
19580;DHT22;9936;51.040;13.918;2023-02-28T21:30:26;-0.50;99.90
19580;DHT22;9936;51.040;13.918;2023-02-28T21:34:11;-0.60;99.90
19580;DHT22;9936;51.040;13.918;2023-02-28T21:37:58;-0.60;99.90
19580;DHT22;9936;51.040;13.918;2023-02-28T21:41:44;-0.60;99.90
19580;DHT22;9936;51.040;13.918;2023-02-28T21:45:30;-0.60;99.90
19580;DHT22;9936;51.040;13.918;2023-02-28T21:49:16;-0.50;99.90
19580;DHT22;9936;51.040;13.918;2023-02-28T21:53:01;-0.70;99.90
19580;DHT22;9936;51.040;13.918;2023-02-28T21:56:47;-0.70;99.90
19580;DHT22;9936;51.040;13.918;2023-02-28T22:00:34;-0.70;99.90
19580;DHT22;9936;51.040;13.918;2023-02-28T22:04:20;-0.80;99.90
19580;DHT22;9936;51.040;13.918;2023-02-28T22:08:06;-0.80;99.90
19580;DHT22;9936;51.040;13.918;2023-02-28T22:11:52;-0.80;99.90
19580;DHT22;9936;51.040;13.918;2023-02-28T22:15:38;-0.90;99.90
19580;DHT22;9936;51.040;13.918;2023-02-28T22:19:23;-0.90;99.90
19580;DHT22;9936;51.040;13.918;2023-02-28T22:23:09;-0.90;99.90
19580;DHT22;9936;51.040;13.918;2023-02-28T22:26:55;-0.90;99.90
19580;DHT22;9936;51.040;13.918;2023-02-28T22:30:56;-0.90;99.90
19580;DHT22;9936;51.040;13.918;2023-02-28T22:34:42;-1.00;99.90
19580;DHT22;9936;51.040;13.918;2023-02-28T22:38:28;-1.00;99.90
19580;DHT22;9936;51.040;13.918;2023-02-28T22:42:14;-1.00;99.90
19580;DHT22;9936;51.040;13.918;2023-02-28T22:46:01;-1.10;99.90
19580;DHT22;9936;51.040;13.918;2023-02-28T22:49:48;-1.10;99.90
19580;DHT22;9936;51.040;13.918;2023-02-28T22:53:34;-1.10;99.90
19580;DHT22;9936;51.040;13.918;2023-02-28T22:57:20;-1.10;99.90
19580;DHT22;9936;51.040;13.918;2023-02-28T23:01:06;-1.10;99.90
19580;DHT22;9936;51.040;13.918;2023-02-28T23:04:59;-1.10;99.90
19580;DHT22;9936;51.040;13.918;2023-02-28T23:08:46;-1.10;99.90
19580;DHT22;9936;51.040;13.918;2023-02-28T23:12:32;-1.20;99.90
19580;DHT22;9936;51.040;13.918;2023-02-28T23:16:17;-1.20;99.90
19580;DHT22;9936;51.040;13.918;2023-02-28T23:20:03;-1.20;99.90
19580;DHT22;9936;51.040;13.918;2023-02-28T23:23:49;-1.20;99.90
19580;DHT22;9936;51.040;13.918;2023-02-28T23:27:34;-1.20;99.90
19580;DHT22;9936;51.040;13.918;2023-02-28T23:31:20;-1.30;99.90
19580;DHT22;9936;51.040;13.918;2023-02-28T23:35:07;-1.30;99.90
19580;DHT22;9936;51.040;13.918;2023-02-28T23:38:53;-1.30;99.90
19580;DHT22;9936;51.040;13.918;2023-02-28T23:42:38;-1.40;99.90
19580;DHT22;9936;51.040;13.918;2023-02-28T23:46:24;-1.40;99.90
19580;DHT22;9936;51.040;13.918;2023-02-28T23:50:11;-1.40;99.90
19580;DHT22;9936;51.040;13.918;2023-02-28T23:53:57;-1.40;99.90
19580;DHT22;9936;51.040;13.918;2023-02-28T23:57:42;-1.40;99.90
